SIA953 WIII-WSSS
Flight info
| Callsign | SIA953 |
|---|---|
| Flight time | N/A |
| Altitude | 38000 |
| Route | DOLTA W12 PLB W24 TPG A464 AVPIV DCT AKIPO |
| Aircraft | B77W/H-SDE1E2E3FGHIJ2J3J4J5M1RWXY/LB1D1 |
Departure
| Time | 2026-04-27 14:44 |
|---|---|
| Airport | Soekarno-Hatta International Airport (WIII) |
Arrival
| Time | N/A |
|---|---|
| Airport | Singapore Changi Airport (WSSS) |
| Time | Latitude | Longitude | Altitude | Speed | Heading |
|---|---|---|---|---|---|
| 2026-04-27 14:14 | -6.11757 | 106.66457 | 53 ft | 0 kts | 158° |
| 2026-04-27 14:30 | -6.11743 | 106.66452 | 53 ft | 2 kts | 158° |
| 2026-04-27 14:30 | -6.11729 | 106.66446 | 53 ft | 2 kts | 158° |
| 2026-04-27 14:30 | -6.11715 | 106.66441 | 53 ft | 2 kts | 158° |
| 2026-04-27 14:30 | -6.11701 | 106.66436 | 53 ft | 2 kts | 174° |
| 2026-04-27 14:31 | -6.11686 | 106.66437 | 53 ft | 2 kts | 191° |
| 2026-04-27 14:31 | -6.11672 | 106.66441 | 53 ft | 2 kts | 205° |
| 2026-04-27 14:31 | -6.11659 | 106.66448 | 53 ft | 2 kts | 219° |
| 2026-04-27 14:31 | -6.11649 | 106.66458 | 53 ft | 2 kts | 234° |
| 2026-04-27 14:32 | -6.11641 | 106.66471 | 53 ft | 2 kts | 248° |
| 2026-04-27 14:32 | -6.11636 | 106.66486 | 53 ft | 2 kts | 250° |
| 2026-04-27 14:32 | -6.11631 | 106.66499 | 53 ft | 2 kts | 248° |
| 2026-04-27 14:32 | -6.11628 | 106.66505 | 53 ft | 0 kts | 248° |
| 2026-04-27 14:35 | -6.11629 | 106.66503 | 53 ft | 0 kts | 248° |
| 2026-04-27 14:35 | -6.11637 | 106.66485 | 53 ft | 5 kts | 248° |
| 2026-04-27 14:35 | -6.11641 | 106.66427 | 53 ft | 11 kts | 292° |
| 2026-04-27 14:35 | -6.11556 | 106.66374 | 53 ft | 17 kts | 338° |
| 2026-04-27 14:36 | -6.11430 | 106.66324 | 53 ft | 19 kts | 337° |
| 2026-04-27 14:36 | -6.11362 | 106.66245 | 53 ft | 13 kts | 265° |
| 2026-04-27 14:36 | -6.11386 | 106.66166 | 53 ft | 10 kts | 248° |
| 2026-04-27 14:36 | -6.11414 | 106.66094 | 53 ft | 11 kts | 249° |
| 2026-04-27 14:37 | -6.11449 | 106.66007 | 53 ft | 15 kts | 247° |
| 2026-04-27 14:37 | -6.11496 | 106.65887 | 53 ft | 21 kts | 248° |
| 2026-04-27 14:37 | -6.11558 | 106.65732 | 53 ft | 25 kts | 248° |
| 2026-04-27 14:37 | -6.11656 | 106.65485 | 53 ft | 29 kts | 248° |
| 2026-04-27 14:38 | -6.11731 | 106.65299 | 53 ft | 27 kts | 249° |
| 2026-04-27 14:38 | -6.11802 | 106.65123 | 53 ft | 25 kts | 249° |
| 2026-04-27 14:38 | -6.11864 | 106.64963 | 53 ft | 24 kts | 249° |
| 2026-04-27 14:38 | -6.11922 | 106.64812 | 53 ft | 22 kts | 247° |
| 2026-04-27 14:39 | -6.11979 | 106.64672 | 53 ft | 20 kts | 249° |
| 2026-04-27 14:39 | -6.12026 | 106.64545 | 53 ft | 18 kts | 249° |
| 2026-04-27 14:39 | -6.12075 | 106.64428 | 53 ft | 17 kts | 244° |
| 2026-04-27 14:39 | -6.12124 | 106.64321 | 53 ft | 16 kts | 248° |
| 2026-04-27 14:40 | -6.12186 | 106.64159 | 53 ft | 14 kts | 248° |
| 2026-04-27 14:40 | -6.12223 | 106.64065 | 53 ft | 14 kts | 249° |
| 2026-04-27 14:40 | -6.12254 | 106.63976 | 53 ft | 12 kts | 264° |
| 2026-04-27 14:40 | -6.12230 | 106.63899 | 53 ft | 7 kts | 314° |
| 2026-04-27 14:41 | -6.12229 | 106.63898 | 53 ft | 0 kts | 315° |
| 2026-04-27 14:41 | -6.12228 | 106.63897 | 53 ft | 1 kts | 321° |
| 2026-04-27 14:42 | -6.12172 | 106.63891 | 53 ft | 14 kts | 20° |
| 2026-04-27 14:42 | -6.12081 | 106.63955 | 53 ft | 15 kts | 50° |
| 2026-04-27 14:42 | -6.12056 | 106.64000 | 53 ft | 0 kts | 68° |
| 2026-04-27 14:43 | -6.12055 | 106.64002 | 53 ft | 3 kts | 68° |
| 2026-04-27 14:43 | -6.11966 | 106.64226 | 53 ft | 77 kts | 68° |
| 2026-04-27 14:43 | -6.11662 | 106.64991 | 54 ft | 156 kts | 67° |
| 2026-04-27 14:44 | -6.11207 | 106.66132 | 555 ft | 184 kts | 68° |
| 2026-04-27 14:44 | -6.10729 | 106.67313 | 1428 ft | 189 kts | 60° |
| 2026-04-27 14:44 | -6.09809 | 106.68291 | 2126 ft | 203 kts | 36° |
| 2026-04-27 14:44 | -6.08583 | 106.69089 | 2849 ft | 220 kts | 33° |
| 2026-04-27 14:45 | -6.07263 | 106.69924 | 3608 ft | 235 kts | 33° |
| 2026-04-27 14:45 | -6.05837 | 106.70825 | 4403 ft | 251 kts | 33° |
| 2026-04-27 14:45 | -6.04296 | 106.71800 | 4901 ft | 266 kts | 33° |
| 2026-04-27 14:45 | -6.02726 | 106.72790 | 4967 ft | 269 kts | 33° |
| 2026-04-27 14:46 | -6.01116 | 106.73804 | 4979 ft | 270 kts | 34° |
| 2026-04-27 14:46 | -5.99385 | 106.74576 | 5006 ft | 286 kts | 12° |
| 2026-04-27 14:46 | -5.97379 | 106.74433 | 6027 ft | 295 kts | 341° |
| 2026-04-27 14:46 | -5.95686 | 106.73412 | 7388 ft | 288 kts | 316° |
| 2026-04-27 14:47 | -5.94504 | 106.71766 | 8336 ft | 294 kts | 295° |
| 2026-04-27 14:47 | -5.93679 | 106.69886 | 9311 ft | 299 kts | 292° |
| 2026-04-27 14:47 | -5.92854 | 106.67989 | 10286 ft | 303 kts | 293° |
| 2026-04-27 14:47 | -5.91961 | 106.66013 | 10903 ft | 322 kts | 294° |
| 2026-04-27 14:48 | -5.90989 | 106.63907 | 11542 ft | 341 kts | 294° |
| 2026-04-27 14:48 | -5.88881 | 106.59373 | 12859 ft | 374 kts | 294° |
| 2026-04-27 14:48 | -5.87761 | 106.56971 | 13487 ft | 390 kts | 294° |
| 2026-04-27 14:49 | -5.86581 | 106.54440 | 14125 ft | 406 kts | 295° |
| 2026-04-27 14:49 | -5.85371 | 106.51846 | 14733 ft | 421 kts | 295° |
| 2026-04-27 14:49 | -5.84122 | 106.49170 | 15450 ft | 431 kts | 295° |
| 2026-04-27 14:49 | -5.82853 | 106.46448 | 16464 ft | 432 kts | 295° |
| 2026-04-27 14:50 | -5.81576 | 106.43705 | 17422 ft | 434 kts | 295° |
| 2026-04-27 14:50 | -5.80308 | 106.40973 | 18154 ft | 442 kts | 295° |
| 2026-04-27 14:50 | -5.79000 | 106.38155 | 18932 ft | 447 kts | 295° |
| 2026-04-27 14:50 | -5.77684 | 106.35321 | 19764 ft | 451 kts | 295° |
| 2026-04-27 14:51 | -5.76352 | 106.32460 | 20520 ft | 455 kts | 296° |
| 2026-04-27 14:51 | -5.74751 | 106.29726 | 21228 ft | 459 kts | 306° |
| 2026-04-27 14:51 | -5.72710 | 106.27264 | 21896 ft | 463 kts | 315° |
| 2026-04-27 14:51 | -5.71110 | 106.25803 | 22372 ft | 465 kts | 322° |
| 2026-04-27 14:52 | -5.67506 | 106.23422 | 23334 ft | 468 kts | 331° |
| 2026-04-27 14:52 | -5.64647 | 106.21816 | 24019 ft | 472 kts | 332° |
| 2026-04-27 14:52 | -5.61770 | 106.20209 | 24659 ft | 477 kts | 332° |
| 2026-04-27 14:52 | -5.58841 | 106.18568 | 25306 ft | 482 kts | 331° |
| 2026-04-27 14:53 | -5.55920 | 106.16928 | 25968 ft | 486 kts | 331° |
| 2026-04-27 14:53 | -5.52937 | 106.15251 | 26614 ft | 490 kts | 332° |
| 2026-04-27 14:53 | -5.49952 | 106.13571 | 27248 ft | 494 kts | 331° |
| 2026-04-27 14:53 | -5.46939 | 106.11874 | 27865 ft | 499 kts | 332° |
| 2026-04-27 14:54 | -5.43892 | 106.10157 | 28473 ft | 503 kts | 331° |
| 2026-04-27 14:54 | -5.40848 | 106.08441 | 29085 ft | 507 kts | 332° |
| 2026-04-27 14:54 | -5.37777 | 106.06709 | 29816 ft | 508 kts | 332° |
| 2026-04-27 14:54 | -5.34697 | 106.04971 | 30741 ft | 504 kts | 332° |
| 2026-04-27 14:55 | -5.31650 | 106.03249 | 31696 ft | 499 kts | 332° |
| 2026-04-27 14:55 | -5.28649 | 106.01555 | 32577 ft | 496 kts | 332° |
| 2026-04-27 14:55 | -5.25646 | 105.99859 | 33447 ft | 493 kts | 332° |
| 2026-04-27 14:55 | -5.22644 | 105.98164 | 34254 ft | 492 kts | 332° |
| 2026-04-27 14:56 | -5.19673 | 105.96487 | 35053 ft | 490 kts | 333° |
| 2026-04-27 14:56 | -5.16699 | 105.94807 | 35818 ft | 488 kts | 333° |
| 2026-04-27 14:56 | -5.13746 | 105.93141 | 36490 ft | 487 kts | 333° |
| 2026-04-27 14:56 | -5.10801 | 105.91475 | 37018 ft | 488 kts | 333° |
| 2026-04-27 14:57 | -5.07737 | 105.89729 | 37532 ft | 489 kts | 333° |
| 2026-04-27 14:57 | -5.04729 | 105.88014 | 37881 ft | 491 kts | 333° |
| 2026-04-27 14:57 | -4.98728 | 105.84593 | 37874 ft | 488 kts | 333° |
| 2026-04-27 14:58 | -4.92779 | 105.81203 | 37873 ft | 489 kts | 333° |
| 2026-04-27 14:58 | -4.86847 | 105.77825 | 37871 ft | 489 kts | 333° |
| 2026-04-27 14:59 | -4.80919 | 105.74449 | 37864 ft | 489 kts | 333° |
| 2026-04-27 14:59 | -4.74990 | 105.71073 | 37863 ft | 489 kts | 333° |
| 2026-04-27 15:00 | -4.69029 | 105.67681 | 37862 ft | 489 kts | 333° |
| 2026-04-27 15:00 | -4.63100 | 105.64307 | 37862 ft | 490 kts | 333° |
| 2026-04-27 15:01 | -4.57132 | 105.60912 | 37858 ft | 491 kts | 333° |
| 2026-04-27 15:01 | -4.51191 | 105.57533 | 37861 ft | 491 kts | 333° |
| 2026-04-27 15:02 | -4.45217 | 105.54135 | 37865 ft | 490 kts | 333° |
| 2026-04-27 15:02 | -4.39237 | 105.50736 | 37874 ft | 491 kts | 333° |
| 2026-04-27 15:03 | -4.33272 | 105.47344 | 37886 ft | 492 kts | 333° |
| 2026-04-27 15:03 | -4.27318 | 105.43960 | 37885 ft | 490 kts | 333° |
| 2026-04-27 15:04 | -4.21361 | 105.40575 | 37886 ft | 491 kts | 333° |
| 2026-04-27 15:04 | -4.15397 | 105.37186 | 37885 ft | 489 kts | 333° |
| 2026-04-27 15:05 | -4.09561 | 105.33868 | 37881 ft | 474 kts | 333° |
| 2026-04-27 15:05 | -4.03817 | 105.30608 | 37882 ft | 476 kts | 333° |
| 2026-04-27 15:06 | -3.98049 | 105.27332 | 37883 ft | 475 kts | 333° |
| 2026-04-27 15:06 | -3.92288 | 105.24061 | 37869 ft | 473 kts | 333° |
| 2026-04-27 15:07 | -3.86558 | 105.20828 | 37867 ft | 473 kts | 333° |
| 2026-04-27 15:07 | -3.80804 | 105.17590 | 37866 ft | 475 kts | 333° |
| 2026-04-27 15:08 | -3.75017 | 105.14333 | 37868 ft | 475 kts | 333° |
| 2026-04-27 15:08 | -3.69263 | 105.11095 | 37870 ft | 475 kts | 333° |
| 2026-04-27 15:09 | -3.63461 | 105.07830 | 37872 ft | 484 kts | 333° |
| 2026-04-27 15:09 | -3.57518 | 105.04487 | 37870 ft | 492 kts | 333° |
| 2026-04-27 15:10 | -3.51531 | 105.01117 | 37870 ft | 489 kts | 333° |
| 2026-04-27 15:10 | -3.45593 | 104.97776 | 37870 ft | 491 kts | 333° |
| 2026-04-27 15:11 | -3.39617 | 104.94415 | 37871 ft | 490 kts | 333° |
| 2026-04-27 15:11 | -3.33651 | 104.91058 | 37871 ft | 491 kts | 333° |
| 2026-04-27 15:12 | -3.27668 | 104.87694 | 37871 ft | 491 kts | 333° |
| 2026-04-27 15:12 | -3.21671 | 104.84322 | 37870 ft | 490 kts | 333° |
| 2026-04-27 15:13 | -3.16726 | 104.81542 | 37871 ft | 490 kts | 333° |
| 2026-04-27 15:13 | -3.10770 | 104.78194 | 37872 ft | 490 kts | 333° |
| 2026-04-27 15:14 | -3.03798 | 104.74275 | 37874 ft | 490 kts | 333° |
| 2026-04-27 15:14 | -2.97855 | 104.70935 | 37875 ft | 490 kts | 333° |
| 2026-04-27 15:15 | -2.91873 | 104.67596 | 37868 ft | 490 kts | 336° |
| 2026-04-27 15:15 | -2.85478 | 104.65484 | 37874 ft | 484 kts | 353° |
| 2026-04-27 15:16 | -2.79894 | 104.65070 | 37878 ft | 482 kts | 0° |
| 2026-04-27 15:16 | -2.72027 | 104.64811 | 37877 ft | 480 kts | 0° |
| 2026-04-27 15:17 | -2.65329 | 104.64593 | 37878 ft | 480 kts | 0° |
| 2026-04-27 15:17 | -2.58644 | 104.64378 | 37880 ft | 480 kts | 1° |
| 2026-04-27 15:18 | -2.51957 | 104.64162 | 37879 ft | 480 kts | 0° |
| 2026-04-27 15:18 | -2.45308 | 104.63510 | 37876 ft | 485 kts | 351° |
| 2026-04-27 15:19 | -2.38657 | 104.62049 | 37867 ft | 485 kts | 350° |
| 2026-04-27 15:19 | -2.32042 | 104.60581 | 37868 ft | 485 kts | 350° |
| 2026-04-27 15:20 | -2.26550 | 104.59362 | 37868 ft | 485 kts | 350° |
| 2026-04-27 15:20 | -2.18871 | 104.57658 | 37880 ft | 486 kts | 350° |
| 2026-04-27 15:21 | -2.12241 | 104.56186 | 37869 ft | 484 kts | 350° |
| 2026-04-27 15:21 | -2.05627 | 104.54718 | 37870 ft | 486 kts | 350° |
| 2026-04-27 15:22 | -1.99008 | 104.53249 | 37871 ft | 485 kts | 350° |
| 2026-04-27 15:22 | -1.92365 | 104.51775 | 37871 ft | 486 kts | 350° |
| 2026-04-27 15:23 | -1.85782 | 104.50314 | 37871 ft | 486 kts | 350° |
| 2026-04-27 15:23 | -1.79126 | 104.48837 | 37872 ft | 486 kts | 350° |
| 2026-04-27 15:24 | -1.72514 | 104.47370 | 37872 ft | 486 kts | 350° |
| 2026-04-27 15:24 | -1.65908 | 104.45905 | 37872 ft | 485 kts | 350° |
| 2026-04-27 15:25 | -1.59301 | 104.44439 | 37872 ft | 486 kts | 350° |
| 2026-04-27 15:25 | -1.52659 | 104.42966 | 37872 ft | 486 kts | 350° |
| 2026-04-27 15:26 | -1.46039 | 104.41497 | 37872 ft | 487 kts | 350° |